sensor_id;sensor_type;location;lat;lon;timestamp;temperature;humidity
34231;DHT22;21574;51.538;-0.084;2022-08-21T00:00:58;27.60;51.80
34231;DHT22;21574;51.538;-0.084;2022-08-21T00:03:25;27.60;51.80
34231;DHT22;21574;51.538;-0.084;2022-08-21T00:05:51;27.60;51.90
34231;DHT22;21574;51.538;-0.084;2022-08-21T00:08:18;27.60;51.80
34231;DHT22;21574;51.538;-0.084;2022-08-21T00:10:43;27.60;51.80
34231;DHT22;21574;51.538;-0.084;2022-08-21T00:13:09;27.60;51.80
34231;DHT22;21574;51.538;-0.084;2022-08-21T00:15:35;27.60;51.70
34231;DHT22;21574;51.538;-0.084;2022-08-21T00:18:01;27.60;51.80
34231;DHT22;21574;51.538;-0.084;2022-08-21T00:20:27;27.60;51.80
34231;DHT22;21574;51.538;-0.084;2022-08-21T00:22:53;27.60;51.70
34231;DHT22;21574;51.538;-0.084;2022-08-21T00:25:19;27.60;51.70
34231;DHT22;21574;51.538;-0.084;2022-08-21T00:27:44;27.60;51.70
34231;DHT22;21574;51.538;-0.084;2022-08-21T00:30:12;27.60;51.70
34231;DHT22;21574;51.538;-0.084;2022-08-21T00:32:39;27.60;51.70
34231;DHT22;21574;51.538;-0.084;2022-08-21T00:35:05;27.60;51.70
34231;DHT22;21574;51.538;-0.084;2022-08-21T00:37:32;27.60;51.70
34231;DHT22;21574;51.538;-0.084;2022-08-21T00:39:57;27.60;51.70
34231;DHT22;21574;51.538;-0.084;2022-08-21T00:42:23;27.60;51.70
34231;DHT22;21574;51.538;-0.084;2022-08-21T00:44:48;27.60;51.70
34231;DHT22;21574;51.538;-0.084;2022-08-21T00:47:15;27.60;51.70
34231;DHT22;21574;51.538;-0.084;2022-08-21T00:49:41;27.60;51.70
34231;DHT22;21574;51.538;-0.084;2022-08-21T00:52:07;27.60;51.70
34231;DHT22;21574;51.538;-0.084;2022-08-21T00:54:34;27.60;51.60
34231;DHT22;21574;51.538;-0.084;2022-08-21T00:57:13;27.60;51.70
34231;DHT22;21574;51.538;-0.084;2022-08-21T00:59:39;27.60;51.70
34231;DHT22;21574;51.538;-0.084;2022-08-21T01:02:06;27.60;51.70
34231;DHT22;21574;51.538;-0.084;2022-08-21T01:04:32;27.60;51.70
34231;DHT22;21574;51.538;-0.084;2022-08-21T01:06:58;27.60;51.70
34231;DHT22;21574;51.538;-0.084;2022-08-21T01:09:23;27.60;51.80
34231;DHT22;21574;51.538;-0.084;2022-08-21T01:11:49;27.60;51.80
34231;DHT22;21574;51.538;-0.084;2022-08-21T01:14:14;27.60;51.90
34231;DHT22;21574;51.538;-0.084;2022-08-21T01:16:41;27.60;52.00
34231;DHT22;21574;51.538;-0.084;2022-08-21T01:19:08;27.60;52.00
34231;DHT22;21574;51.538;-0.084;2022-08-21T01:21:34;27.60;51.90
34231;DHT22;21574;51.538;-0.084;2022-08-21T01:23:59;27.60;52.30
34231;DHT22;21574;51.538;-0.084;2022-08-21T01:26:26;27.60;51.80
34231;DHT22;21574;51.538;-0.084;2022-08-21T01:29:00;27.60;51.70
34231;DHT22;21574;51.538;-0.084;2022-08-21T01:31:28;27.60;51.70
34231;DHT22;21574;51.538;-0.084;2022-08-21T01:33:53;27.60;51.70
34231;DHT22;21574;51.538;-0.084;2022-08-21T01:36:20;27.60;51.70
34231;DHT22;21574;51.538;-0.084;2022-08-21T01:38:45;27.60;51.70
34231;DHT22;21574;51.538;-0.084;2022-08-21T01:41:12;27.60;51.70
34231;DHT22;21574;51.538;-0.084;2022-08-21T01:43:38;27.60;51.70
34231;DHT22;21574;51.538;-0.084;2022-08-21T01:46:03;27.60;51.70
34231;DHT22;21574;51.538;-0.084;2022-08-21T01:48:29;27.70;51.70
34231;DHT22;21574;51.538;-0.084;2022-08-21T01:50:55;27.60;51.70
34231;DHT22;21574;51.538;-0.084;2022-08-21T01:53:21;27.70;51.90
34231;DHT22;21574;51.538;-0.084;2022-08-21T01:55:46;27.60;51.70
34231;DHT22;21574;51.538;-0.084;2022-08-21T01:58:12;27.60;51.70
34231;DHT22;21574;51.538;-0.084;2022-08-21T02:00:37;27.60;51.90
34231;DHT22;21574;51.538;-0.084;2022-08-21T02:03:03;27.60;51.90
34231;DHT22;21574;51.538;-0.084;2022-08-21T02:05:28;27.60;51.90
34231;DHT22;21574;51.538;-0.084;2022-08-21T02:07:54;27.60;51.90
34231;DHT22;21574;51.538;-0.084;2022-08-21T02:10:21;27.60;52.00
34231;DHT22;21574;51.538;-0.084;2022-08-21T02:12:47;27.60;52.00
34231;DHT22;21574;51.538;-0.084;2022-08-21T02:15:13;27.60;52.00
34231;DHT22;21574;51.538;-0.084;2022-08-21T02:17:43;27.60;52.30
34231;DHT22;21574;51.538;-0.084;2022-08-21T02:20:09;27.60;52.20
34231;DHT22;21574;51.538;-0.084;2022-08-21T02:22:35;27.60;52.00
34231;DHT22;21574;51.538;-0.084;2022-08-21T02:25:00;27.60;52.20
34231;DHT22;21574;51.538;-0.084;2022-08-21T02:27:26;27.60;52.10
34231;DHT22;21574;51.538;-0.084;2022-08-21T02:29:51;27.60;51.70
34231;DHT22;21574;51.538;-0.084;2022-08-21T02:32:17;27.60;51.80
34231;DHT22;21574;51.538;-0.084;2022-08-21T02:34:42;27.60;52.10
34231;DHT22;21574;51.538;-0.084;2022-08-21T02:37:08;27.60;52.00
34231;DHT22;21574;51.538;-0.084;2022-08-21T02:39:33;27.60;52.00
34231;DHT22;21574;51.538;-0.084;2022-08-21T02:41:59;27.60;51.90
34231;DHT22;21574;51.538;-0.084;2022-08-21T02:44:25;27.60;52.10
34231;DHT22;21574;51.538;-0.084;2022-08-21T02:46:50;27.60;52.00
34231;DHT22;21574;51.538;-0.084;2022-08-21T02:49:16;27.60;52.00
34231;DHT22;21574;51.538;-0.084;2022-08-21T02:51:41;27.60;52.10
34231;DHT22;21574;51.538;-0.084;2022-08-21T02:54:07;27.60;52.00
34231;DHT22;21574;51.538;-0.084;2022-08-21T02:56:32;27.60;51.90
34231;DHT22;21574;51.538;-0.084;2022-08-21T02:58:58;27.60;52.00
34231;DHT22;21574;51.538;-0.084;2022-08-21T03:01:23;27.50;51.90
34231;DHT22;21574;51.538;-0.084;2022-08-21T03:03:50;27.60;51.90
34231;DHT22;21574;51.538;-0.084;2022-08-21T03:06:16;27.50;51.70
34231;DHT22;21574;51.538;-0.084;2022-08-21T03:08:42;27.60;51.70
34231;DHT22;21574;51.538;-0.084;2022-08-21T03:11:10;27.60;51.70
34231;DHT22;21574;51.538;-0.084;2022-08-21T03:13:36;27.50;51.70
34231;DHT22;21574;51.538;-0.084;2022-08-21T03:16:01;27.60;51.70
34231;DHT22;21574;51.538;-0.084;2022-08-21T03:18:27;27.60;51.70
34231;DHT22;21574;51.538;-0.084;2022-08-21T03:20:52;27.60;51.70
34231;DHT22;21574;51.538;-0.084;2022-08-21T03:23:18;27.50;51.70
34231;DHT22;21574;51.538;-0.084;2022-08-21T03:25:44;27.50;51.70
34231;DHT22;21574;51.538;-0.084;2022-08-21T03:28:12;27.50;51.70
34231;DHT22;21574;51.538;-0.084;2022-08-21T03:30:41;27.60;51.80
34231;DHT22;21574;51.538;-0.084;2022-08-21T03:33:07;27.50;51.70
34231;DHT22;21574;51.538;-0.084;2022-08-21T03:35:33;27.50;51.80
34231;DHT22;21574;51.538;-0.084;2022-08-21T03:37:58;27.50;51.80
34231;DHT22;21574;51.538;-0.084;2022-08-21T03:40:24;27.50;51.70
34231;DHT22;21574;51.538;-0.084;2022-08-21T03:42:50;27.60;51.80
34231;DHT22;21574;51.538;-0.084;2022-08-21T03:45:16;27.50;51.90
34231;DHT22;21574;51.538;-0.084;2022-08-21T03:47:55;27.50;51.80
34231;DHT22;21574;51.538;-0.084;2022-08-21T03:50:22;27.60;51.90
34231;DHT22;21574;51.538;-0.084;2022-08-21T03:52:47;27.50;51.70
34231;DHT22;21574;51.538;-0.084;2022-08-21T03:55:13;27.50;51.70
34231;DHT22;21574;51.538;-0.084;2022-08-21T03:57:38;27.50;51.70
34231;DHT22;21574;51.538;-0.084;2022-08-21T04:00:04;27.50;51.80
34231;DHT22;21574;51.538;-0.084;2022-08-21T04:02:30;27.50;51.80
34231;DHT22;21574;51.538;-0.084;2022-08-21T04:04:55;27.50;51.50
34231;DHT22;21574;51.538;-0.084;2022-08-21T04:07:21;27.50;51.70
34231;DHT22;21574;51.538;-0.084;2022-08-21T04:09:46;27.50;51.60
34231;DHT22;21574;51.538;-0.084;2022-08-21T04:12:12;27.50;51.60
34231;DHT22;21574;51.538;-0.084;2022-08-21T04:14:37;27.50;51.60
34231;DHT22;21574;51.538;-0.084;2022-08-21T04:17:03;27.50;51.60
34231;DHT22;21574;51.538;-0.084;2022-08-21T04:19:29;27.50;52.10
34231;DHT22;21574;51.538;-0.084;2022-08-21T04:21:54;27.50;51.50
34231;DHT22;21574;51.538;-0.084;2022-08-21T04:24:20;27.50;51.60
34231;DHT22;21574;51.538;-0.084;2022-08-21T04:26:45;27.50;51.60
34231;DHT22;21574;51.538;-0.084;2022-08-21T04:29:11;27.50;51.60
34231;DHT22;21574;51.538;-0.084;2022-08-21T04:31:36;27.50;51.50
34231;DHT22;21574;51.538;-0.084;2022-08-21T04:34:02;27.50;51.60
34231;DHT22;21574;51.538;-0.084;2022-08-21T04:36:28;27.50;51.60
34231;DHT22;21574;51.538;-0.084;2022-08-21T04:38:54;27.50;51.70
34231;DHT22;21574;51.538;-0.084;2022-08-21T04:41:19;27.50;51.60
34231;DHT22;21574;51.538;-0.084;2022-08-21T04:43:45;27.50;51.60
34231;DHT22;21574;51.538;-0.084;2022-08-21T04:46:10;27.50;51.60
34231;DHT22;21574;51.538;-0.084;2022-08-21T04:48:36;27.50;51.60
34231;DHT22;21574;51.538;-0.084;2022-08-21T04:53:37;27.50;52.60
34231;DHT22;21574;51.538;-0.084;2022-08-21T04:56:10;27.50;51.70
34231;DHT22;21574;51.538;-0.084;2022-08-21T04:58:36;27.50;51.60
34231;DHT22;21574;51.538;-0.084;2022-08-21T05:01:03;27.50;51.60
34231;DHT22;21574;51.538;-0.084;2022-08-21T05:03:30;27.50;51.60
34231;DHT22;21574;51.538;-0.084;2022-08-21T05:05:56;27.50;51.70
34231;DHT22;21574;51.538;-0.084;2022-08-21T05:08:21;27.50;52.00
34231;DHT22;21574;51.538;-0.084;2022-08-21T05:10:48;27.50;52.00
34231;DHT22;21574;51.538;-0.084;2022-08-21T05:13:14;27.50;52.10
34231;DHT22;21574;51.538;-0.084;2022-08-21T05:15:40;27.50;52.70
34231;DHT22;21574;51.538;-0.084;2022-08-21T05:18:07;27.50;52.50
34231;DHT22;21574;51.538;-0.084;2022-08-21T05:20:33;27.50;52.60
34231;DHT22;21574;51.538;-0.084;2022-08-21T05:23:01;27.50;52.60
34231;DHT22;21574;51.538;-0.084;2022-08-21T05:25:32;27.50;52.50
34231;DHT22;21574;51.538;-0.084;2022-08-21T05:27:57;27.50;52.30
34231;DHT22;21574;51.538;-0.084;2022-08-21T05:30:23;27.50;52.30
34231;DHT22;21574;51.538;-0.084;2022-08-21T05:32:48;27.50;52.20
34231;DHT22;21574;51.538;-0.084;2022-08-21T05:35:14;27.50;52.30
34231;DHT22;21574;51.538;-0.084;2022-08-21T05:37:40;27.50;52.20
34231;DHT22;21574;51.538;-0.084;2022-08-21T05:40:05;27.50;52.00
34231;DHT22;21574;51.538;-0.084;2022-08-21T05:42:32;27.50;52.00
34231;DHT22;21574;51.538;-0.084;2022-08-21T05:44:58;27.50;51.80
34231;DHT22;21574;51.538;-0.084;2022-08-21T05:47:23;27.50;51.80
34231;DHT22;21574;51.538;-0.084;2022-08-21T05:49:49;27.60;52.10
34231;DHT22;21574;51.538;-0.084;2022-08-21T05:52:18;27.50;52.80
34231;DHT22;21574;51.538;-0.084;2022-08-21T05:54:43;27.50;52.10
34231;DHT22;21574;51.538;-0.084;2022-08-21T05:57:09;27.50;51.90
34231;DHT22;21574;51.538;-0.084;2022-08-21T05:59:35;27.50;51.90
34231;DHT22;21574;51.538;-0.084;2022-08-21T06:02:01;27.60;52.00
34231;DHT22;21574;51.538;-0.084;2022-08-21T06:04:27;27.50;52.00
34231;DHT22;21574;51.538;-0.084;2022-08-21T06:06:52;27.50;52.60
34231;DHT22;21574;51.538;-0.084;2022-08-21T06:09:18;27.50;52.90
34231;DHT22;21574;51.538;-0.084;2022-08-21T06:11:44;27.50;53.20
34231;DHT22;21574;51.538;-0.084;2022-08-21T06:14:09;27.50;53.10
34231;DHT22;21574;51.538;-0.084;2022-08-21T06:16:35;27.50;53.10
34231;DHT22;21574;51.538;-0.084;2022-08-21T06:19:00;27.60;53.10
34231;DHT22;21574;51.538;-0.084;2022-08-21T06:21:26;27.50;53.10
34231;DHT22;21574;51.538;-0.084;2022-08-21T06:23:51;27.60;53.10
34231;DHT22;21574;51.538;-0.084;2022-08-21T06:26:17;27.50;53.40
34231;DHT22;21574;51.538;-0.084;2022-08-21T06:28:42;27.50;52.80
34231;DHT22;21574;51.538;-0.084;2022-08-21T06:31:15;27.50;52.70
34231;DHT22;21574;51.538;-0.084;2022-08-21T06:33:41;27.60;52.80
34231;DHT22;21574;51.538;-0.084;2022-08-21T06:36:07;27.60;52.80
34231;DHT22;21574;51.538;-0.084;2022-08-21T06:38:33;27.50;52.70
34231;DHT22;21574;51.538;-0.084;2022-08-21T06:40:58;27.50;52.60
34231;DHT22;21574;51.538;-0.084;2022-08-21T06:43:24;27.50;52.50
34231;DHT22;21574;51.538;-0.084;2022-08-21T06:45:49;27.60;52.60
34231;DHT22;21574;51.538;-0.084;2022-08-21T06:48:15;27.60;52.50
34231;DHT22;21574;51.538;-0.084;2022-08-21T06:50:40;27.60;52.40
34231;DHT22;21574;51.538;-0.084;2022-08-21T06:53:07;27.60;52.30
34231;DHT22;21574;51.538;-0.084;2022-08-21T06:55:33;27.60;52.40
34231;DHT22;21574;51.538;-0.084;2022-08-21T06:57:58;27.60;52.40
34231;DHT22;21574;51.538;-0.084;2022-08-21T07:00:24;27.50;52.20
34231;DHT22;21574;51.538;-0.084;2022-08-21T07:02:50;27.50;52.40
34231;DHT22;21574;51.538;-0.084;2022-08-21T07:05:16;27.50;52.30
34231;DHT22;21574;51.538;-0.084;2022-08-21T07:07:41;27.60;52.10
34231;DHT22;21574;51.538;-0.084;2022-08-21T07:10:07;27.60;52.20
34231;DHT22;21574;51.538;-0.084;2022-08-21T07:12:33;27.50;52.10
34231;DHT22;21574;51.538;-0.084;2022-08-21T07:14:58;27.60;51.70
34231;DHT22;21574;51.538;-0.084;2022-08-21T07:17:24;27.50;52.30
34231;DHT22;21574;51.538;-0.084;2022-08-21T07:19:49;27.50;51.90
34231;DHT22;21574;51.538;-0.084;2022-08-21T07:22:17;27.50;51.90
34231;DHT22;21574;51.538;-0.084;2022-08-21T07:24:44;27.50;51.90
34231;DHT22;21574;51.538;-0.084;2022-08-21T07:27:09;27.50;51.90
34231;DHT22;21574;51.538;-0.084;2022-08-21T07:29:35;27.50;51.90
34231;DHT22;21574;51.538;-0.084;2022-08-21T07:32:00;27.50;51.90
34231;DHT22;21574;51.538;-0.084;2022-08-21T07:34:26;27.50;51.90
34231;DHT22;21574;51.538;-0.084;2022-08-21T07:36:51;27.50;51.90
34231;DHT22;21574;51.538;-0.084;2022-08-21T07:39:17;27.50;51.80
34231;DHT22;21574;51.538;-0.084;2022-08-21T07:41:43;27.40;51.80
34231;DHT22;21574;51.538;-0.084;2022-08-21T07:44:08;27.40;51.80
34231;DHT22;21574;51.538;-0.084;2022-08-21T07:46:34;27.40;51.80
34231;DHT22;21574;51.538;-0.084;2022-08-21T07:48:59;27.40;51.70
34231;DHT22;21574;51.538;-0.084;2022-08-21T07:51:25;27.50;51.60
34231;DHT22;21574;51.538;-0.084;2022-08-21T07:53:52;27.50;51.60
34231;DHT22;21574;51.538;-0.084;2022-08-21T07:56:18;27.50;51.60
34231;DHT22;21574;51.538;-0.084;2022-08-21T07:58:44;27.40;51.50
34231;DHT22;21574;51.538;-0.084;2022-08-21T08:01:09;27.40;51.30
34231;DHT22;21574;51.538;-0.084;2022-08-21T08:03:35;27.40;51.40
34231;DHT22;21574;51.538;-0.084;2022-08-21T08:06:00;27.40;51.40
34231;DHT22;21574;51.538;-0.084;2022-08-21T08:08:26;27.40;51.20
34231;DHT22;21574;51.538;-0.084;2022-08-21T08:10:52;27.40;51.20
34231;DHT22;21574;51.538;-0.084;2022-08-21T08:13:18;27.40;51.30
34231;DHT22;21574;51.538;-0.084;2022-08-21T08:15:44;27.40;51.30
34231;DHT22;21574;51.538;-0.084;2022-08-21T08:18:09;27.40;51.20
34231;DHT22;21574;51.538;-0.084;2022-08-21T08:20:35;27.40;51.30
34231;DHT22;21574;51.538;-0.084;2022-08-21T08:23:01;27.40;51.30
34231;DHT22;21574;51.538;-0.084;2022-08-21T08:25:26;27.40;51.60
34231;DHT22;21574;51.538;-0.084;2022-08-21T08:27:52;27.40;51.30
34231;DHT22;21574;51.538;-0.084;2022-08-21T08:30:18;27.40;51.30
34231;DHT22;21574;51.538;-0.084;2022-08-21T08:32:44;27.40;51.30
34231;DHT22;21574;51.538;-0.084;2022-08-21T08:35:10;27.40;51.30
34231;DHT22;21574;51.538;-0.084;2022-08-21T08:37:37;27.40;51.30
34231;DHT22;21574;51.538;-0.084;2022-08-21T08:40:06;27.40;51.20
34231;DHT22;21574;51.538;-0.084;2022-08-21T08:42:32;27.40;51.20
34231;DHT22;21574;51.538;-0.084;2022-08-21T08:45:06;27.40;51.10
34231;DHT22;21574;51.538;-0.084;2022-08-21T08:47:34;27.40;51.20
34231;DHT22;21574;51.538;-0.084;2022-08-21T08:50:03;27.40;51.10
34231;DHT22;21574;51.538;-0.084;2022-08-21T08:52:33;27.40;51.20
34231;DHT22;21574;51.538;-0.084;2022-08-21T08:55:19;27.40;51.20
34231;DHT22;21574;51.538;-0.084;2022-08-21T08:57:46;27.40;51.10
34231;DHT22;21574;51.538;-0.084;2022-08-21T09:00:14;27.40;51.00
34231;DHT22;21574;51.538;-0.084;2022-08-21T09:02:41;27.40;50.90
34231;DHT22;21574;51.538;-0.084;2022-08-21T09:05:08;27.40;50.90
34231;DHT22;21574;51.538;-0.084;2022-08-21T09:12:33;27.40;51.60
34231;DHT22;21574;51.538;-0.084;2022-08-21T09:20:11;27.40;51.30
34231;DHT22;21574;51.538;-0.084;2022-08-21T09:28:00;27.40;50.70
34231;DHT22;21574;51.538;-0.084;2022-08-21T09:30:29;27.50;51.30
34231;DHT22;21574;51.538;-0.084;2022-08-21T09:32:55;27.50;51.50
34231;DHT22;21574;51.538;-0.084;2022-08-21T09:35:22;27.50;52.00
34231;DHT22;21574;51.538;-0.084;2022-08-21T09:37:53;27.50;52.60
34231;DHT22;21574;51.538;-0.084;2022-08-21T09:40:21;27.60;52.70
34231;DHT22;21574;51.538;-0.084;2022-08-21T09:42:56;27.60;53.00
34231;DHT22;21574;51.538;-0.084;2022-08-21T09:45:22;27.60;53.30
34231;DHT22;21574;51.538;-0.084;2022-08-21T09:47:47;27.70;53.20
34231;DHT22;21574;51.538;-0.084;2022-08-21T09:50:23;27.70;53.40
34231;DHT22;21574;51.538;-0.084;2022-08-21T09:52:52;27.70;53.40
34231;DHT22;21574;51.538;-0.084;2022-08-21T09:58:15;27.70;53.20
34231;DHT22;21574;51.538;-0.084;2022-08-21T10:00:40;27.70;53.10
34231;DHT22;21574;51.538;-0.084;2022-08-21T10:03:07;27.80;53.10
34231;DHT22;21574;51.538;-0.084;2022-08-21T10:05:33;27.80;53.20
34231;DHT22;21574;51.538;-0.084;2022-08-21T10:07:59;27.80;53.20
34231;DHT22;21574;51.538;-0.084;2022-08-21T10:10:36;27.80;53.10
34231;DHT22;21574;51.538;-0.084;2022-08-21T10:18:02;27.80;53.20
34231;DHT22;21574;51.538;-0.084;2022-08-21T10:20:35;27.80;53.10
34231;DHT22;21574;51.538;-0.084;2022-08-21T10:23:12;27.80;53.10
34231;DHT22;21574;51.538;-0.084;2022-08-21T10:25:45;27.80;53.10
34231;DHT22;21574;51.538;-0.084;2022-08-21T10:28:19;27.80;53.10
34231;DHT22;21574;51.538;-0.084;2022-08-21T10:31:08;27.80;53.20
34231;DHT22;21574;51.538;-0.084;2022-08-21T10:33:53;27.90;53.30
34231;DHT22;21574;51.538;-0.084;2022-08-21T10:36:33;27.90;53.20
34231;DHT22;21574;51.538;-0.084;2022-08-21T10:39:11;27.90;53.30
34231;DHT22;21574;51.538;-0.084;2022-08-21T10:49:33;27.90;53.30
34231;DHT22;21574;51.538;-0.084;2022-08-21T10:54:42;27.90;53.20
34231;DHT22;21574;51.538;-0.084;2022-08-21T10:57:33;27.90;53.30
34231;DHT22;21574;51.538;-0.084;2022-08-21T11:00:03;27.90;53.30
34231;DHT22;21574;51.538;-0.084;2022-08-21T11:02:32;27.90;53.40
34231;DHT22;21574;51.538;-0.084;2022-08-21T11:05:03;27.90;53.30
34231;DHT22;21574;51.538;-0.084;2022-08-21T11:09:56;27.90;53.20
34231;DHT22;21574;51.538;-0.084;2022-08-21T11:14:51;28.00;53.50
34231;DHT22;21574;51.538;-0.084;2022-08-21T11:17:22;28.00;53.60
34231;DHT22;21574;51.538;-0.084;2022-08-21T11:22:35;28.00;53.10
34231;DHT22;21574;51.538;-0.084;2022-08-21T11:25:06;28.00;53.30
34231;DHT22;21574;51.538;-0.084;2022-08-21T11:30:00;28.00;53.10
34231;DHT22;21574;51.538;-0.084;2022-08-21T11:34:54;28.00;53.20
34231;DHT22;21574;51.538;-0.084;2022-08-21T11:40:27;28.10;53.20
34231;DHT22;21574;51.538;-0.084;2022-08-21T11:45:31;28.10;53.20
34231;DHT22;21574;51.538;-0.084;2022-08-21T11:48:01;28.10;53.10
34231;DHT22;21574;51.538;-0.084;2022-08-21T11:50:30;28.00;53.60
34231;DHT22;21574;51.538;-0.084;2022-08-21T11:52:58;28.10;53.30
34231;DHT22;21574;51.538;-0.084;2022-08-21T11:55:36;28.10;53.30
34231;DHT22;21574;51.538;-0.084;2022-08-21T12:00:30;28.20;53.70
34231;DHT22;21574;51.538;-0.084;2022-08-21T12:02:59;28.20;54.30
34231;DHT22;21574;51.538;-0.084;2022-08-21T12:05:32;28.20;54.50
34231;DHT22;21574;51.538;-0.084;2022-08-21T12:08:45;28.20;54.10
34231;DHT22;21574;51.538;-0.084;2022-08-21T12:10:58;28.20;54.40
34231;DHT22;21574;51.538;-0.084;2022-08-21T12:13:25;28.20;54.00
34231;DHT22;21574;51.538;-0.084;2022-08-21T12:15:51;28.20;53.60
34231;DHT22;21574;51.538;-0.084;2022-08-21T12:18:21;28.20;53.60
34231;DHT22;21574;51.538;-0.084;2022-08-21T12:23:26;28.20;53.30
34231;DHT22;21574;51.538;-0.084;2022-08-21T12:28:47;28.20;53.00
34231;DHT22;21574;51.538;-0.084;2022-08-21T12:31:26;28.10;52.90
34231;DHT22;21574;51.538;-0.084;2022-08-21T12:33:53;28.10;52.80
34231;DHT22;21574;51.538;-0.084;2022-08-21T12:36:21;28.20;52.80
34231;DHT22;21574;51.538;-0.084;2022-08-21T12:41:22;28.10;52.60
34231;DHT22;21574;51.538;-0.084;2022-08-21T12:43:56;28.10;52.50
34231;DHT22;21574;51.538;-0.084;2022-08-21T12:46:26;28.10;52.40
34231;DHT22;21574;51.538;-0.084;2022-08-21T12:48:57;28.10;52.40
34231;DHT22;21574;51.538;-0.084;2022-08-21T12:51:31;28.10;52.40
34231;DHT22;21574;51.538;-0.084;2022-08-21T12:53:58;28.10;52.30
34231;DHT22;21574;51.538;-0.084;2022-08-21T12:56:25;28.20;52.40
34231;DHT22;21574;51.538;-0.084;2022-08-21T12:58:53;28.10;52.20
34231;DHT22;21574;51.538;-0.084;2022-08-21T13:01:21;28.20;52.90
34231;DHT22;21574;51.538;-0.084;2022-08-21T13:03:49;28.00;53.30
34231;DHT22;21574;51.538;-0.084;2022-08-21T13:06:15;27.80;51.80
34231;DHT22;21574;51.538;-0.084;2022-08-21T13:08:42;27.50;51.10
34231;DHT22;21574;51.538;-0.084;2022-08-21T13:11:08;27.30;50.50
34231;DHT22;21574;51.538;-0.084;2022-08-21T13:13:34;27.20;50.10
34231;DHT22;21574;51.538;-0.084;2022-08-21T13:16:04;27.10;49.70
34231;DHT22;21574;51.538;-0.084;2022-08-21T13:18:31;27.10;49.50
34231;DHT22;21574;51.538;-0.084;2022-08-21T13:23:30;27.00;49.70
34231;DHT22;21574;51.538;-0.084;2022-08-21T13:25:55;26.90;49.40
34231;DHT22;21574;51.538;-0.084;2022-08-21T13:28:21;26.90;49.70
34231;DHT22;21574;51.538;-0.084;2022-08-21T13:30:49;26.90;49.80
34231;DHT22;21574;51.538;-0.084;2022-08-21T13:33:15;26.80;49.80
34231;DHT22;21574;51.538;-0.084;2022-08-21T13:38:22;26.80;50.30
34231;DHT22;21574;51.538;-0.084;2022-08-21T13:40:50;26.70;50.40
34231;DHT22;21574;51.538;-0.084;2022-08-21T13:43:20;26.70;50.40
34231;DHT22;21574;51.538;-0.084;2022-08-21T13:45:50;26.60;50.60
34231;DHT22;21574;51.538;-0.084;2022-08-21T13:48:15;26.60;50.70
34231;DHT22;21574;51.538;-0.084;2022-08-21T13:50:41;26.60;50.90
34231;DHT22;21574;51.538;-0.084;2022-08-21T13:53:20;26.60;50.90
34231;DHT22;21574;51.538;-0.084;2022-08-21T13:55:47;26.60;51.70
34231;DHT22;21574;51.538;-0.084;2022-08-21T13:58:13;26.60;52.20
34231;DHT22;21574;51.538;-0.084;2022-08-21T14:00:49;26.60;52.50
34231;DHT22;21574;51.538;-0.084;2022-08-21T14:03:23;26.70;52.40
34231;DHT22;21574;51.538;-0.084;2022-08-21T14:05:51;26.70;52.40
34231;DHT22;21574;51.538;-0.084;2022-08-21T14:08:50;26.80;52.50
34231;DHT22;21574;51.538;-0.084;2022-08-21T14:11:10;26.80;52.90
34231;DHT22;21574;51.538;-0.084;2022-08-21T14:13:47;26.80;52.90
34231;DHT22;21574;51.538;-0.084;2022-08-21T14:16:15;26.80;52.80
34231;DHT22;21574;51.538;-0.084;2022-08-21T14:18:49;26.80;53.00
34231;DHT22;21574;51.538;-0.084;2022-08-21T14:21:22;26.80;52.90
34231;DHT22;21574;51.538;-0.084;2022-08-21T14:23:58;26.80;53.00
34231;DHT22;21574;51.538;-0.084;2022-08-21T14:26:24;26.80;53.20
34231;DHT22;21574;51.538;-0.084;2022-08-21T14:28:50;26.80;53.30
34231;DHT22;21574;51.538;-0.084;2022-08-21T14:31:19;26.80;53.50
34231;DHT22;21574;51.538;-0.084;2022-08-21T14:33:45;26.80;53.60
34231;DHT22;21574;51.538;-0.084;2022-08-21T14:36:11;26.80;53.50
34231;DHT22;21574;51.538;-0.084;2022-08-21T14:38:37;26.80;53.90
34231;DHT22;21574;51.538;-0.084;2022-08-21T14:41:16;26.80;53.90
34231;DHT22;21574;51.538;-0.084;2022-08-21T14:43:43;26.80;54.10
34231;DHT22;21574;51.538;-0.084;2022-08-21T14:46:08;26.70;53.90
34231;DHT22;21574;51.538;-0.084;2022-08-21T14:48:34;26.80;54.10
34231;DHT22;21574;51.538;-0.084;2022-08-21T14:50:59;26.70;54.20
34231;DHT22;21574;51.538;-0.084;2022-08-21T14:53:25;26.70;54.10
34231;DHT22;21574;51.538;-0.084;2022-08-21T14:55:50;26.70;54.20
34231;DHT22;21574;51.538;-0.084;2022-08-21T14:58:32;26.70;54.30
34231;DHT22;21574;51.538;-0.084;2022-08-21T15:00:58;26.60;54.70
34231;DHT22;21574;51.538;-0.084;2022-08-21T15:03:28;26.60;54.30
34231;DHT22;21574;51.538;-0.084;2022-08-21T15:05:54;26.60;54.10
34231;DHT22;21574;51.538;-0.084;2022-08-21T15:08:19;26.60;54.20
34231;DHT22;21574;51.538;-0.084;2022-08-21T15:10:45;26.60;54.00
34231;DHT22;21574;51.538;-0.084;2022-08-21T15:13:10;26.60;54.20
34231;DHT22;21574;51.538;-0.084;2022-08-21T15:15:40;26.60;54.10
34231;DHT22;21574;51.538;-0.084;2022-08-21T15:18:06;26.60;54.20
34231;DHT22;21574;51.538;-0.084;2022-08-21T15:20:32;26.60;54.00
34231;DHT22;21574;51.538;-0.084;2022-08-21T15:22:57;26.60;53.80
34231;DHT22;21574;51.538;-0.084;2022-08-21T15:25:23;26.60;53.90
34231;DHT22;21574;51.538;-0.084;2022-08-21T15:27:48;26.60;53.70
34231;DHT22;21574;51.538;-0.084;2022-08-21T15:30:14;26.60;53.80
34231;DHT22;21574;51.538;-0.084;2022-08-21T15:32:40;26.60;53.90
34231;DHT22;21574;51.538;-0.084;2022-08-21T15:35:07;26.60;54.00
34231;DHT22;21574;51.538;-0.084;2022-08-21T15:37:32;26.60;54.00
34231;DHT22;21574;51.538;-0.084;2022-08-21T15:39:58;26.60;54.10
34231;DHT22;21574;51.538;-0.084;2022-08-21T15:42:24;26.60;54.00
34231;DHT22;21574;51.538;-0.084;2022-08-21T15:44:51;26.60;54.10
34231;DHT22;21574;51.538;-0.084;2022-08-21T15:47:19;26.60;54.00
34231;DHT22;21574;51.538;-0.084;2022-08-21T15:49:46;26.60;53.80
34231;DHT22;21574;51.538;-0.084;2022-08-21T15:52:16;26.60;53.90
34231;DHT22;21574;51.538;-0.084;2022-08-21T15:54:42;26.50;53.90
34231;DHT22;21574;51.538;-0.084;2022-08-21T15:57:09;26.50;53.90
34231;DHT22;21574;51.538;-0.084;2022-08-21T15:59:38;26.50;53.90
34231;DHT22;21574;51.538;-0.084;2022-08-21T16:02:05;26.50;53.70
34231;DHT22;21574;51.538;-0.084;2022-08-21T16:04:30;26.50;53.60
34231;DHT22;21574;51.538;-0.084;2022-08-21T16:06:56;26.50;53.60
34231;DHT22;21574;51.538;-0.084;2022-08-21T16:09:21;26.50;53.40
34231;DHT22;21574;51.538;-0.084;2022-08-21T16:11:47;26.50;53.30
34231;DHT22;21574;51.538;-0.084;2022-08-21T16:14:13;26.50;53.70
34231;DHT22;21574;51.538;-0.084;2022-08-21T16:16:39;26.60;54.30
34231;DHT22;21574;51.538;-0.084;2022-08-21T16:19:05;26.50;54.20
34231;DHT22;21574;51.538;-0.084;2022-08-21T16:21:34;26.60;54.10
34231;DHT22;21574;51.538;-0.084;2022-08-21T16:24:00;26.60;54.40
34231;DHT22;21574;51.538;-0.084;2022-08-21T16:26:26;26.50;54.40